logo
Search for airport 
image banner adimage banner adimage banner ad
image banner ad

LKPL - Letkov

Located in Plzen, Czech Republic

ICAO - LKPL, IATA -

Data provided by Airmate  

General information

Coordinates: N49°43'23" E13°27'8"
Elevation is 1374 feet MSL.
 
View others Airports in Plzen Region

Operational data

Special qualification required
Current time UTC:
Current local time:
Weather at : LKLN - Plzen/Line ( 14 km )
METAR: LKLN 200600Z AUTO 27007KT 210V330 9999 // SCT013 BKN019 OVC024 04/02 Q1008
View NOTAMs / SUP AIP / TFR affecting this airport [VIEW]
Communications frequencies: [VIEW]

Runways:

RWY identifierQFULength (ft)Width (ft)SurfaceLDA (ft)
08L229798GRASS
26R229798GRASS
08R1509164GRASS
26L1509164GRASS

Airport contact information

Address: Plzen Czech Republic

Other aviation service providers

Aviation club (not for profit)

Aeroklub Plzeň Letkov - Roman Lanzendorf

Aeroklub Plzeň Letkov - Roman Lanzendorf
info@akletkov.cz+420608979832
+420724672209

Satellite view of LKPL